Time;durP1;ratioP1;P1;durP2;ratioP2;P2;SDS_P1;SDS_P2;PMS_P1;PMS_P2;Temp;Humidity;BMP_temperature;BMP_pressure;BME280_temperature;BME280_humidity;BME280_pressure;Samples;Min_cycle;Max_cycle;Signal;HPM_P1;HPM_P2
2021/07/09 00:02:06;;;;;;;4.57;2.55;;;16.50;99.90;;;15.18;93.68;101767.78;3510493;40;102285;-41
2021/07/09 00:04:34;;;;;;;6.28;2.47;;;16.50;99.90;;;15.19;94.09;101765.91;3510144;40;103285;-41
2021/07/09 00:07:02;;;;;;;4.38;2.13;;;16.50;99.90;;;15.21;94.32;101766.50;3510008;40;102139;-42
2021/07/09 00:09:29;;;;;;;4.22;2.67;;;16.50;99.90;;;15.20;94.36;101760.16;3510030;40;102824;-41
2021/07/09 00:11:57;;;;;;;6.30;2.80;;;16.50;99.90;;;15.20;94.68;101762.91;3510566;40;102645;-41
2021/07/09 00:14:29;;;;;;;5.07;2.53;;;16.50;99.90;;;15.21;94.78;101770.09;3510071;40;102608;-41
2021/07/09 00:16:57;;;;;;;6.70;2.92;;;16.50;99.90;;;15.23;94.90;101769.88;3510007;40;102416;-41
2021/07/09 00:19:24;;;;;;;;;;;16.50;99.90;;;15.21;95.00;101769.25;3511189;40;103337;-41
2021/07/09 00:21:52;;;;;;;3.42;2.22;;;16.50;99.90;;;15.25;95.08;101773.25;3510222;40;102146;-42
2021/07/09 00:24:20;;;;;;;4.40;2.55;;;16.50;99.90;;;15.25;94.99;101762.25;3510341;40;102264;-43
2021/07/09 00:26:49;;;;;;;4.13;2.40;;;16.60;99.90;;;15.23;95.29;101764.38;3510069;40;102428;-41
2021/07/09 00:29:16;;;;;;;4.30;2.45;;;16.60;99.90;;;15.24;95.21;101771.56;3509868;40;102304;-42
2021/07/09 00:31:44;;;;;;;4.82;2.65;;;16.50;99.90;;;15.26;95.12;101780.44;3510027;40;102185;-41
2021/07/09 00:34:12;;;;;;;5.68;2.70;;;16.60;99.90;;;15.27;95.20;101782.13;3509880;40;103321;-41
2021/07/09 00:36:39;;;;;;;4.28;2.45;;;16.60;99.90;;;15.28;95.45;101785.72;3510339;40;102189;-41
2021/07/09 00:39:08;;;;;;;4.22;2.67;;;16.60;99.90;;;15.27;95.62;101784.88;3509852;40;102194;-42
2021/07/09 00:41:36;;;;;;;5.32;2.90;;;16.50;99.90;;;15.26;95.32;101772.19;3509974;40;102241;-42
2021/07/09 00:44:07;;;;;;;4.20;2.30;;;16.50;99.90;;;15.28;95.53;101774.72;3510062;40;102604;-43
2021/07/09 00:46:37;;;;;;;5.97;2.75;;;16.60;99.90;;;15.29;95.65;101780.00;3509862;40;102113;-41
2021/07/09 00:49:06;;;;;;;4.47;2.88;;;16.60;99.90;;;15.31;95.67;101777.84;3510082;40;105269;-41
2021/07/09 00:51:34;;;;;;;6.30;3.08;;;16.60;99.90;;;15.32;95.49;101768.53;3510010;40;102083;-43
2021/07/09 00:54:02;;;;;;;;;;;16.60;99.90;;;15.30;95.68;101770.69;3510276;40;103543;-41
2021/07/09 00:56:33;;;;;;;4.60;2.60;;;16.60;99.90;;;15.33;95.56;101761.97;3510025;40;102769;-42
2021/07/09 00:59:03;;;;;;;4.63;2.78;;;16.60;99.90;;;15.34;95.50;101757.34;3509886;40;103153;-41
2021/07/09 01:01:32;;;;;;;4.53;2.95;;;16.60;99.90;;;15.35;95.82;101757.09;3510223;40;102557;-42
2021/07/09 01:04:00;;;;;;;4.30;2.72;;;16.70;99.90;;;15.34;95.59;101758.16;3510075;40;102187;-41
2021/07/09 01:06:28;;;;;;;4.10;2.72;;;16.60;99.90;;;15.35;95.82;101754.34;3510088;40;102397;-41
2021/07/09 01:08:55;;;;;;;5.90;2.97;;;16.70;99.90;;;15.36;95.93;101753.28;3510044;40;104166;-41
2021/07/09 01:11:24;;;;;;;4.88;3.42;;;16.70;99.90;;;15.35;95.92;101751.59;3509647;40;102401;-41
2021/07/09 01:13:52;;;;;;;4.75;3.03;;;16.70;99.90;;;15.25;96.09;101743.00;3509497;40;103143;-41
2021/07/09 01:16:20;;;;;;;4.82;3.13;;;16.70;99.90;;;15.37;95.84;101754.97;3647151;23;104274;-41
2021/07/09 01:18:47;;;;;;;;;;;16.70;99.90;;;15.36;95.63;101753.28;3510156;40;103333;-41
2021/07/09 01:21:15;;;;;;;4.30;2.70;;;16.70;99.90;;;15.35;95.74;101756.28;3510587;40;102461;-42
2021/07/09 01:23:45;;;;;;;3.88;2.60;;;16.70;99.90;;;15.33;95.79;101748.22;3510545;40;103493;-44
2021/07/09 01:26:12;;;;;;;5.22;3.42;;;16.60;99.90;;;15.34;95.76;101758.16;3510195;40;102121;-40
2021/07/09 01:28:40;;;;;;;;;;;16.70;99.90;;;15.33;95.71;101753.72;3510986;40;102400;-41
2021/07/09 01:31:09;;;;;;;7.80;3.50;;;16.60;99.90;;;15.33;95.84;101759.22;3510542;40;102299;-41
2021/07/09 01:33:37;;;;;;;6.18;3.60;;;16.70;99.90;;;15.34;95.65;101754.59;3510351;40;104348;-40
2021/07/09 01:36:05;;;;;;;;;;;16.60;99.90;;;15.33;95.29;101755.66;3510653;40;102455;-41
2021/07/09 01:38:33;;;;;;;5.20;3.00;;;16.60;99.90;;;15.30;95.18;101748.69;3510846;40;102280;-41
2021/07/09 01:41:02;;;;;;;6.80;3.90;;;16.60;99.90;;;15.30;95.46;101751.44;3510401;40;102353;-41
2021/07/09 01:43:31;;;;;;;4.93;3.42;;;16.60;99.90;;;15.28;95.62;101745.31;3510171;40;104098;-41
2021/07/09 01:45:59;;;;;;;4.55;2.88;;;16.60;99.90;;;15.29;95.59;101755.25;3510140;40;102405;-40
2021/07/09 01:48:26;;;;;;;6.25;3.97;;;16.60;99.90;;;15.28;95.73;101750.81;3510221;40;102166;-41
2021/07/09 01:50:54;;;;;;;6.78;3.42;;;16.60;99.90;;;15.28;95.83;101753.56;3510270;40;102647;-40
2021/07/09 01:53:22;;;;;;;8.60;3.47;;;16.60;99.90;;;15.29;95.88;101751.66;3510423;40;103195;-40
2021/07/09 01:55:49;;;;;;;6.45;3.50;;;16.60;99.90;;;15.27;95.83;101746.38;3510366;40;103366;-40
2021/07/09 01:58:17;;;;;;;5.78;3.88;;;16.60;99.90;;;15.28;95.86;101750.00;3510393;40;103113;-40
2021/07/09 02:00:45;;;;;;;;;;;16.60;99.90;;;15.28;95.92;101737.06;3510467;40;102278;-42
2021/07/09 02:03:13;;;;;;;5.32;3.42;;;16.60;99.90;;;15.29;96.17;101741.50;3510424;40;103219;-40
2021/07/09 02:05:40;;;;;;;4.70;2.95;;;16.60;99.90;;;15.22;95.94;101736.03;3510141;40;102409;-40
2021/07/09 02:08:08;;;;;;;6.40;3.90;;;16.60;99.90;;;15.27;96.01;101731.81;3510674;40;102430;-40
2021/07/09 02:10:42;;;;;;;5.75;3.58;;;16.60;99.90;;;15.24;96.00;101728.41;3510442;40;102330;-42
2021/07/09 02:13:11;;;;;;;5.70;3.95;;;16.50;99.90;;;15.24;96.07;101724.84;3510345;40;102120;-41
2021/07/09 02:15:44;;;;;;;4.85;3.10;;;16.50;99.90;;;15.20;96.05;101716.19;3509916;40;102461;-41
2021/07/09 02:18:14;;;;;;;5.68;3.80;;;16.50;99.90;;;15.23;95.89;101717.66;3510164;40;102243;-40
2021/07/09 02:20:43;;;;;;;6.60;3.45;;;16.50;99.90;;;15.21;96.28;101717.03;3510331;40;102145;-41
2021/07/09 02:23:15;;;;;;;5.65;3.60;;;16.50;99.90;;;15.20;95.94;101726.34;3509931;40;104276;-40
2021/07/09 02:25:44;;;;;;;9.02;3.88;;;16.50;99.90;;;15.16;96.06;101725.94;3510099;40;102399;-41
2021/07/09 02:28:11;;;;;;;5.72;3.80;;;16.50;99.90;;;15.14;95.97;101721.75;3509608;40;104041;-40
2021/07/09 02:30:39;;;;;;;5.70;3.30;;;16.50;99.90;;;15.12;96.05;101724.69;3510613;40;102402;-41
2021/07/09 02:33:07;;;;;;;7.03;3.55;;;16.40;99.90;;;15.10;95.62;101726.84;3510468;40;102599;-40
2021/07/09 02:35:38;;;;;;;;;;;16.40;99.90;;;15.05;95.81;101724.72;3510717;40;102283;-41
2021/07/09 02:38:08;;;;;;;5.82;3.45;;;16.40;99.90;;;15.02;95.69;101735.34;3510202;40;102275;-41
2021/07/09 02:40:36;;;;;;;5.07;3.45;;;16.30;99.90;;;15.01;95.55;101737.22;3510362;40;103055;-40
2021/07/09 02:43:06;;;;;;;5.22;3.65;;;16.40;99.90;;;15.01;95.58;101739.97;3510165;39;102326;-41
2021/07/09 02:45:34;;;;;;;6.80;3.70;;;16.30;99.90;;;15.00;95.75;101734.72;3509395;40;103459;-40
2021/07/09 02:48:15;;;;;;;5.80;3.53;;;16.30;99.90;;;15.00;95.80;101732.81;3510048;40;102214;-40
2021/07/09 02:50:43;;;;;;;6.20;3.65;;;16.30;99.90;;;15.03;96.18;101735.09;3509928;40;103256;-44
2021/07/09 02:53:11;;;;;;;5.78;3.60;;;16.30;99.90;;;15.05;96.29;101732.16;3510400;40;103115;-40
2021/07/09 02:55:38;;;;;;;5.68;3.70;;;16.30;99.90;;;15.03;96.20;101746.09;3509979;40;102310;-40
2021/07/09 02:58:06;;;;;;;5.40;3.78;;;16.30;99.90;;;15.07;96.59;101750.09;3509624;40;104043;-41
2021/07/09 03:00:33;;;;;;;5.90;3.50;;;16.40;99.90;;;15.09;96.73;101747.13;3510137;40;102917;-41
2021/07/09 03:03:01;;;;;;;7.65;4.03;;;16.40;99.90;;;15.12;97.12;101748.59;3509573;40;104118;-41
2021/07/09 03:05:28;;;;;;;;;;;16.40;99.90;;;15.15;97.24;101748.16;3511005;40;102421;-41
2021/07/09 03:07:55;;;;;;;6.47;4.10;;;16.40;99.90;;;15.17;97.04;101743.28;3509890;40;102127;-42
2021/07/09 03:10:23;;;;;;;8.77;4.30;;;16.40;99.90;;;15.20;97.30;101731.84;3510195;40;102359;-41
2021/07/09 03:12:50;;;;;;;7.13;3.50;;;16.50;99.90;;;15.24;97.39;101739.41;3509574;40;103142;-41
2021/07/09 03:15:18;;;;;;;5.90;4.10;;;16.50;99.90;;;15.26;97.48;101732.88;3509569;40;102477;-41
2021/07/09 03:17:45;;;;;;;6.47;4.30;;;16.50;99.90;;;15.25;97.60;101726.53;3509774;40;102273;-41
2021/07/09 03:20:13;;;;;;;6.35;4.15;;;16.50;99.90;;;15.26;97.48;101722.72;3509662;40;102400;-41
2021/07/09 03:22:40;;;;;;;8.43;4.20;;;16.60;99.90;;;15.28;97.80;101733.50;3509561;40;104217;-41
2021/07/09 03:25:09;;;;;;;6.75;4.72;;;16.60;99.90;;;15.28;97.77;101728.00;3509389;40;102597;-40
2021/07/09 03:27:37;;;;;;;8.63;5.25;;;16.60;99.90;;;15.27;97.85;101726.31;3509499;40;104030;-43
2021/07/09 03:30:09;;;;;;;7.22;4.53;;;16.60;99.90;;;15.28;97.98;101723.31;3509612;40;103257;-41
2021/07/09 03:32:37;;;;;;;7.78;5.05;;;16.60;99.90;;;15.29;97.61;101729.69;3509612;40;102223;-42
2021/07/09 03:35:09;;;;;;;8.85;5.75;;;16.60;99.90;;;15.28;97.68;101722.50;3509593;40;102376;-41
2021/07/09 03:37:37;;;;;;;8.40;5.60;;;16.60;99.90;;;15.29;97.71;101725.00;3510025;40;102336;-40
2021/07/09 03:40:07;;;;;;;;;;;16.60;99.90;;;15.30;97.86;101728.63;3510529;40;102385;-41
2021/07/09 03:42:34;;;;;;;;;;;16.60;99.90;;;15.30;97.80;101726.69;3510392;40;102637;-41
2021/07/09 03:45:02;;;;;;;9.55;5.93;;;16.60;99.90;;;15.29;97.84;101726.94;3509291;40;102463;-41
2021/07/09 03:47:29;;;;;;;9.63;5.97;;;16.60;99.90;;;15.33;97.68;101725.41;3509563;40;103151;-42
2021/07/09 03:49:57;;;;;;;10.02;6.38;;;16.60;99.90;;;15.34;97.81;101729.84;3509349;40;102388;-41
2021/07/09 03:52:24;;;;;;;9.27;6.68;;;16.60;99.90;;;15.35;97.79;101729.59;3509606;40;102269;-41
2021/07/09 03:54:51;;;;;;;9.95;6.82;;;16.70;99.90;;;15.36;97.80;101734.03;3509345;40;102451;-41
2021/07/09 03:57:19;;;;;;;13.30;7.03;;;16.70;99.90;;;15.37;98.24;101726.66;3509698;40;104036;-41
2021/07/09 03:59:46;;;;;;;10.70;7.70;;;16.60;99.90;;;15.36;98.05;101731.28;3509576;40;102309;-40
2021/07/09 04:02:14;;;;;;;14.45;8.02;;;16.70;99.90;;;15.38;98.07;101731.09;3509752;40;103338;-41
2021/07/09 04:04:42;;;;;;;13.85;9.00;;;16.70;99.90;;;15.38;97.98;101736.59;3509678;39;102151;-40
2021/07/09 04:07:09;;;;;;;13.88;9.25;;;16.60;99.90;;;15.39;97.87;101736.38;3509327;40;102231;-41
2021/07/09 04:09:36;;;;;;;16.73;10.23;;;16.70;99.90;;;15.41;98.02;101732.56;3509633;40;102695;-41
2021/07/09 04:12:04;;;;;;;15.20;9.50;;;16.70;99.90;;;15.42;97.85;101732.31;3509549;40;102460;-40
2021/07/09 04:14:32;;;;;;;13.65;9.80;;;16.70;99.90;;;15.44;97.57;101734.84;3508887;40;103304;-41
2021/07/09 04:17:00;;;;;;;15.80;10.07;;;16.70;99.90;;;15.46;97.69;101740.97;3509382;40;102401;-41
2021/07/09 04:19:27;;;;;;;14.80;9.82;;;16.80;99.90;;;15.48;97.71;101736.09;3509351;39;102395;-41
2021/07/09 04:21:55;;;;;;;13.55;9.77;;;16.70;99.90;;;15.49;97.68;101729.53;3509734;40;102321;-41
2021/07/09 04:24:22;;;;;;;15.73;10.90;;;16.80;99.90;;;15.50;97.59;101731.22;3509780;40;103343;-40
2021/07/09 04:26:50;;;;;;;17.33;11.77;;;16.80;99.90;;;15.51;97.29;101743.88;3510919;40;102260;-41
2021/07/09 04:29:17;;;;;;;19.08;12.45;;;16.80;99.90;;;15.53;97.43;101744.50;3510515;40;103387;-42
2021/07/09 04:31:45;;;;;;;16.67;11.60;;;16.80;99.90;;;15.53;97.22;101741.75;3510492;40;103274;-41
2021/07/09 04:34:12;;;;;;;18.08;10.60;;;16.80;99.90;;;15.52;97.17;101740.06;3510412;40;102428;-40
2021/07/09 04:36:41;;;;;;;15.68;12.02;;;16.80;99.90;;;15.58;97.23;101744.66;3510492;40;102167;-42
2021/07/09 04:39:09;;;;;;;18.33;12.25;;;16.80;99.90;;;15.62;97.42;101740.41;3511099;40;102281;-41
2021/07/09 04:41:37;;;;;;;16.98;11.85;;;16.90;99.90;;;15.63;97.16;101749.50;3510841;40;102311;-40
2021/07/09 04:44:05;;;;;;;17.63;12.48;;;16.90;99.90;;;15.65;97.14;101747.38;3510709;40;102324;-41
2021/07/09 04:46:32;;;;;;;17.95;12.23;;;16.90;99.90;;;15.65;97.22;101744.63;3510435;40;102863;-43
2021/07/09 04:49:00;;;;;;;21.55;13.07;;;16.90;99.90;;;15.72;97.05;101750.91;3510341;40;102264;-41
2021/07/09 04:51:27;;;;;;;22.10;14.05;;;16.90;99.90;;;15.74;97.00;101748.78;3510777;40;103170;-41
2021/07/09 04:53:54;;;;;;;20.02;13.75;;;17.00;99.90;;;15.75;96.66;101752.38;3510398;40;103279;-44
2021/07/09 04:56:22;;;;;;;22.45;15.32;;;17.00;99.90;;;15.77;95.97;101753.00;3510377;40;104300;-39
2021/07/09 04:58:49;;;;;;;16.33;11.68;;;17.00;99.90;;;15.79;96.34;101761.84;3510740;40;102368;-40
2021/07/09 05:01:17;;;;;;;20.90;13.45;;;17.00;99.90;;;15.81;96.36;101762.47;3510817;40;102401;-44
2021/07/09 05:03:44;;;;;;;22.50;15.15;;;17.10;99.90;;;15.84;96.16;101753.78;3510710;40;102441;-41
2021/07/09 05:06:11;;;;;;;22.10;14.30;;;17.10;99.90;;;15.88;96.28;101756.91;3510512;40;102273;-41
2021/07/09 05:08:39;;;;;;;26.02;14.65;;;17.10;99.90;;;15.92;96.12;101756.28;3510350;40;102666;-40
2021/07/09 05:11:06;;;;;;;23.38;15.05;;;17.10;99.90;;;16.00;96.01;101751.56;3510464;40;103355;-41
2021/07/09 05:13:38;;;;;;;24.38;15.68;;;17.20;99.90;;;16.08;95.76;101756.75;3510450;40;102343;-41
2021/07/09 05:16:07;;;;;;;21.17;14.50;;;17.20;99.90;;;16.16;95.50;101744.63;3510249;40;102274;-42
2021/07/09 05:18:34;;;;;;;21.27;13.95;;;17.30;99.90;;;16.22;95.13;101743.69;3510819;40;102163;-41
2021/07/09 05:21:02;;;;;;;26.70;15.07;;;17.40;99.90;;;16.30;95.09;101750.81;3510457;40;102275;-42
2021/07/09 05:23:30;;;;;;;;;;;17.40;99.90;;;16.37;94.89;101743.31;3511383;40;102756;-41
2021/07/09 05:25:57;;;;;;;19.10;13.73;;;17.50;99.90;;;16.48;94.77;101753.59;3510923;40;102873;-41
2021/07/09 05:28:25;;;;;;;24.35;16.38;;;17.60;99.90;;;16.57;94.42;101750.53;3511232;40;102327;-41
2021/07/09 05:30:53;;;;;;;21.15;15.75;;;17.70;99.90;;;16.63;94.20;101755.09;3510481;40;102268;-40
2021/07/09 05:33:20;;;;;;;22.85;16.38;;;17.70;99.90;;;16.69;93.69;101754.16;3510343;40;102441;-44
2021/07/09 05:35:48;;;;;;;23.25;15.75;;;17.80;99.90;;;16.77;93.41;101748.38;3509445;40;103165;-40
2021/07/09 05:38:15;;;;;;;20.80;15.05;;;17.80;99.90;;;16.86;93.33;101759.06;3510806;40;102239;-41
2021/07/09 05:40:43;;;;;;;22.73;15.80;;;18.00;99.90;;;16.90;93.10;101760.28;3510300;40;103261;-41
2021/07/09 05:43:10;;;;;;;24.83;17.05;;;17.90;99.90;;;16.92;92.58;101758.13;3510569;40;102216;-41
2021/07/09 05:45:38;;;;;;;23.67;15.30;;;18.00;99.90;;;16.94;92.87;101756.81;3510326;40;103173;-41
2021/07/09 05:48:09;;;;;;;22.48;14.52;;;18.00;99.90;;;17.00;92.70;101759.75;3510156;40;102403;-40
2021/07/09 05:50:36;;;;;;;22.83;15.40;;;18.10;99.90;;;17.03;93.12;101771.16;3510012;40;104011;-40
2021/07/09 05:53:04;;;;;;;25.83;15.23;;;18.10;99.90;;;17.09;92.78;101769.38;3510255;40;102610;-42
2021/07/09 05:55:31;;;;;;;23.05;15.77;;;18.20;99.90;;;17.11;92.57;101767.25;3510594;40;102739;-42
2021/07/09 05:57:59;;;;;;;23.02;15.43;;;18.20;99.90;;;17.10;91.62;101769.16;3510726;40;102371;-41
2021/07/09 06:00:26;;;;;;;22.85;15.27;;;18.20;99.90;;;17.13;91.41;101765.09;3510566;40;102268;-41
2021/07/09 06:02:53;;;;;;;22.13;15.57;;;18.30;99.90;;;17.16;91.56;101769.28;3510550;40;102477;-42
2021/07/09 06:05:21;;;;;;;19.92;15.23;;;18.20;99.90;;;17.27;91.56;101771.25;3510214;40;102303;-40
2021/07/09 06:07:49;;;;;;;22.23;14.85;;;18.30;99.90;;;17.34;91.57;101773.91;3510340;40;102214;-41
2021/07/09 06:10:16;;;;;;;21.77;15.50;;;18.40;99.90;;;17.38;90.68;101773.19;3510495;40;104182;-42
2021/07/09 06:12:43;;;;;;;25.83;15.48;;;18.40;99.90;;;17.46;90.35;101783.06;3510415;40;102164;-41
2021/07/09 06:15:12;;;;;;;24.30;15.55;;;18.50;99.90;;;17.46;88.80;101774.78;3510646;39;102280;-41
2021/07/09 06:17:39;;;;;;;23.85;16.05;;;18.50;99.90;;;17.56;89.45;101778.88;3510525;40;102453;-41
2021/07/09 06:20:07;;;;;;;20.15;14.95;;;18.60;99.90;;;17.67;89.20;101780.84;3510868;40;102339;-43
2021/07/09 06:22:35;;;;;;;21.25;15.00;;;18.70;99.90;;;17.71;88.65;101775.66;3509547;40;103998;-41
2021/07/09 06:25:03;;;;;;;23.10;15.15;;;18.70;99.90;;;17.77;88.47;101780.22;3510294;40;102166;-41
2021/07/09 06:27:31;;;;;;;23.20;15.13;;;18.80;99.90;;;17.85;89.09;101785.41;3510416;40;102125;-42
2021/07/09 06:29:59;;;;;;;23.75;15.55;;;18.90;99.90;;;17.92;88.69;101788.91;3510489;40;103186;-41
2021/07/09 06:32:26;;;;;;;;;;;18.90;99.90;;;17.95;87.45;101782.91;3510780;40;102369;-41
2021/07/09 06:34:53;;;;;;;20.60;14.25;;;18.90;99.90;;;18.01;87.29;101786.66;3510268;40;102279;-41
2021/07/09 06:37:21;;;;;;;21.58;14.43;;;19.00;99.90;;;18.09;86.88;101791.81;3510682;40;102416;-41
2021/07/09 06:39:48;;;;;;;22.73;15.32;;;19.10;99.90;;;18.17;87.05;101796.13;3510350;40;102277;-41
2021/07/09 06:42:17;;;;;;;20.85;14.48;;;19.20;99.90;;;18.21;85.91;101802.84;3510408;40;102379;-41
2021/07/09 06:44:44;;;;;;;19.92;14.00;;;19.20;99.90;;;18.25;85.14;101804.06;3509945;40;104456;-41
2021/07/09 06:47:12;;;;;;;20.23;13.98;;;19.20;99.90;;;18.30;85.05;101805.25;3509853;40;102329;-44
2021/07/09 06:49:39;;;;;;;19.45;13.38;;;19.30;99.90;;;18.32;85.82;101805.88;3510340;40;103297;-41
2021/07/09 06:52:07;;;;;;;20.55;14.43;;;19.30;99.90;;;18.35;85.30;101806.22;3510375;40;103467;-40
2021/07/09 06:54:34;;;;;;;18.10;13.00;;;19.40;99.90;;;18.37;85.19;101806.81;3510081;40;103238;-42
2021/07/09 06:57:02;;;;;;;18.90;13.52;;;19.40;99.90;;;18.37;84.65;101800.47;3510391;40;102447;-40
2021/07/09 06:59:30;;;;;;;22.70;13.75;;;19.40;99.90;;;18.44;83.52;101812.22;3510439;40;104281;-42
2021/07/09 07:01:57;;;;;;;20.10;13.88;;;19.40;99.90;;;18.45;82.48;101807.56;3510285;40;103428;-41
2021/07/09 07:04:25;;;;;;;21.70;14.02;;;19.40;99.90;;;18.48;83.68;101810.66;3509841;40;104305;-41
2021/07/09 07:06:53;;;;;;;19.50;12.60;;;19.40;99.90;;;18.56;83.05;101803.91;3510060;40;102640;-41
2021/07/09 07:09:21;;;;;;;19.17;14.02;;;19.50;99.90;;;18.66;83.51;101809.66;3510306;40;102256;-41
2021/07/09 07:11:48;;;;;;;18.45;13.23;;;19.60;99.90;;;18.69;81.41;101811.94;3510224;40;102922;-41
2021/07/09 07:14:16;;;;;;;21.50;13.98;;;19.60;99.90;;;18.78;81.25;101811.56;3510123;40;102272;-40
2021/07/09 07:16:43;;;;;;;23.40;14.63;;;19.70;99.90;;;18.82;80.91;101812.75;3639725;22;104949;-40
2021/07/09 07:19:11;;;;;;;19.00;12.93;;;19.80;99.90;;;18.96;81.91;101818.84;3505781;40;102334;-40
2021/07/09 07:21:39;;;;;;;22.38;14.20;;;19.90;99.90;;;19.07;81.76;101818.00;3509307;40;102400;-39
2021/07/09 07:24:06;;;;;;;24.45;14.77;;;20.00;99.90;;;19.14;79.35;101820.63;3509457;40;103152;-39
2021/07/09 07:26:34;;;;;;;19.52;12.77;;;20.00;99.90;;;19.26;79.20;101824.19;3498523;40;103426;-39
2021/07/09 07:29:02;;;;;;;20.67;13.30;;;20.10;99.90;;;19.39;78.52;101824.97;3499588;40;102369;-39
2021/07/09 07:31:29;;;;;;;20.65;12.35;;;20.30;99.90;;;19.55;79.23;101821.41;3499535;40;103370;-39
2021/07/09 07:33:57;;;;;;;;;;;20.30;99.90;;;19.58;75.47;101824.75;3500152;40;103295;-38
2021/07/09 07:36:24;;;;;;;18.85;12.15;;;20.50;99.90;;;19.67;74.75;101818.56;3499479;40;102274;-38
2021/07/09 07:38:51;;;;;;;18.30;12.27;;;20.50;99.90;;;19.81;75.87;101823.78;3499466;40;102272;-39
2021/07/09 07:41:19;;;;;;;19.17;11.93;;;20.60;99.90;;;19.68;72.47;101819.41;3499615;40;102516;-41
2021/07/09 07:43:47;;;;;;;21.75;12.30;;;20.70;99.90;;;19.62;73.11;101823.16;3499200;40;102265;-39
2021/07/09 07:46:16;;;;;;;19.30;12.60;;;20.60;99.90;;;19.64;72.31;101824.59;3499644;40;103242;-39
2021/07/09 07:48:44;;;;;;;20.63;12.20;;;20.60;99.90;;;19.85;73.97;101830.47;3499283;40;103205;-41
2021/07/09 07:51:12;;;;;;;20.13;12.30;;;20.80;99.90;;;20.22;74.43;101829.16;3500010;40;102356;-39
2021/07/09 07:53:40;;;;;;;21.00;11.82;;;20.90;99.90;;;20.61;71.42;101822.78;3499261;40;102231;-39
2021/07/09 07:56:08;;;;;;;19.10;10.05;;;21.20;99.90;;;20.79;70.57;101830.84;3499315;40;102527;-39
2021/07/09 07:58:37;;;;;;;19.83;10.73;;;21.40;99.90;;;20.95;69.07;101822.69;3499345;40;102324;-39
2021/07/09 08:01:06;;;;;;;18.65;12.10;;;21.60;99.90;;;21.00;68.73;101817.22;3500621;40;102371;-39
2021/07/09 08:03:34;;;;;;;17.77;10.63;;;21.80;99.90;;;20.91;67.12;101819.63;3501127;40;103436;-39
2021/07/09 08:06:03;;;;;;;17.70;11.10;;;21.80;99.90;;;20.74;68.83;101818.81;3500674;40;102582;-39
2021/07/09 08:08:32;;;;;;;14.88;10.38;;;21.70;99.90;;;20.74;68.44;101825.19;3500253;40;104290;-39
2021/07/09 08:10:59;;;;;;;15.98;9.80;;;21.70;99.90;;;20.83;70.12;101826.44;3500224;40;102206;-39
2021/07/09 08:13:27;;;;;;;;;;;21.70;99.90;;;20.79;69.63;101825.28;3501117;40;103536;-39
2021/07/09 08:15:54;;;;;;;16.77;10.00;;;21.70;99.90;;;20.81;68.62;101817.56;3500764;40;102161;-39
2021/07/09 08:18:23;;;;;;;14.30;9.65;;;21.70;99.90;;;20.87;70.39;101812.91;3500559;40;102278;-39
2021/07/09 08:20:50;;;;;;;17.75;10.07;;;21.80;99.90;;;20.94;69.68;101812.69;3500231;40;102490;-39
2021/07/09 08:23:18;;;;;;;;;;;21.80;99.90;;;21.00;67.33;101814.47;3501469;40;102403;-39
2021/07/09 08:25:45;;;;;;;16.60;10.52;;;21.80;99.90;;;21.18;69.93;101817.97;3500517;40;102314;-39
2021/07/09 08:28:14;;;;;;;16.83;9.60;;;21.90;99.90;;;21.30;68.36;101815.91;3500421;40;103299;-39
2021/07/09 08:30:43;;;;;;;18.42;11.15;;;22.00;99.90;;;21.31;66.98;101817.56;3500467;40;102175;-39
2021/07/09 08:33:10;;;;;;;16.70;10.45;;;22.10;99.90;;;21.35;65.58;101813.16;3500948;40;103275;-39
2021/07/09 08:35:39;;;;;;;17.88;10.50;;;22.20;99.90;;;21.48;67.74;101811.91;3500437;40;102461;-39
2021/07/09 08:38:06;;;;;;;14.65;9.43;;;22.20;99.90;;;21.63;68.67;101816.78;3500450;40;102210;-38
2021/07/09 08:40:35;;;;;;;17.02;9.85;;;22.40;99.90;;;21.65;67.71;101809.03;3500069;40;102389;-39
2021/07/09 08:43:14;;;;;;;13.40;8.98;;;22.40;99.90;;;21.45;64.53;101806.88;3500604;40;103145;-39
2021/07/09 08:45:41;;;;;;;13.90;9.55;;;22.30;99.90;;;21.47;67.59;101814.94;3499995;40;102465;-39
2021/07/09 08:48:12;;;;;;;13.23;9.07;;;22.30;99.90;;;21.39;68.40;101811.53;3499929;40;102585;-40
2021/07/09 08:50:39;;;;;;;14.52;9.70;;;22.30;99.90;;;21.44;66.63;101813.53;3500252;40;102496;-39
2021/07/09 08:53:07;;;;;;;;;;;22.20;99.90;;;21.47;67.39;101812.16;3501285;40;103336;-39
2021/07/09 08:55:34;;;;;;;14.68;9.82;;;22.20;99.90;;;21.55;67.80;101809.75;3500718;40;102460;-39
2021/07/09 08:58:02;;;;;;;14.50;8.82;;;22.30;99.90;;;21.59;67.41;101809.22;3500366;40;102415;-39
2021/07/09 09:00:45;;;;;;;16.27;9.93;;;22.30;99.90;;;21.72;67.94;101810.75;3500241;40;102414;-39
2021/07/09 09:03:24;;;;;;;15.43;10.07;;;22.50;99.90;;;21.69;65.85;101812.97;3500014;40;102316;-39
2021/07/09 09:06:00;;;;;;;16.02;9.85;;;22.60;99.90;;;21.69;65.04;101807.41;3500374;40;102369;-39
2021/07/09 09:08:34;;;;;;;15.48;9.82;;;22.50;99.90;;;21.79;64.47;101800.28;3500676;40;102227;-39
2021/07/09 09:11:03;;;;;;;13.75;9.43;;;22.60;99.90;;;21.91;65.33;101809.25;3500194;40;102261;-39
2021/07/09 09:13:34;;;;;;;13.73;9.40;;;22.70;99.90;;;22.06;64.39;101805.75;3500323;40;104020;-39
2021/07/09 09:16:14;;;;;;;13.13;8.52;;;22.80;99.90;;;22.25;63.06;101806.16;3500893;40;102374;-40
2021/07/09 09:18:49;;;;;;;14.75;9.27;;;22.90;99.90;;;22.26;61.01;101807.00;3500382;40;104088;-39
2021/07/09 09:21:20;;;;;;;10.32;6.68;;;23.00;99.90;;;22.36;60.26;101797.91;3500309;40;103552;-39
2021/07/09 09:23:50;;;;;;;9.38;5.82;;;23.10;99.90;;;22.65;60.13;101794.75;3499739;40;103347;-39
2021/07/09 09:26:53;;;;;;;8.95;5.65;;;23.30;99.90;;;23.00;58.70;101784.84;3500243;40;102194;-39
2021/07/09 09:29:26;;;;;;;7.70;5.72;;;23.50;99.90;;;23.35;58.47;101796.38;3500149;40;102232;-39
2021/07/09 09:32:00;;;;;;;10.18;5.90;;;23.80;99.90;;;23.47;54.49;101798.91;3500380;40;102384;-39
2021/07/09 09:34:45;;;;;;;10.40;6.35;;;24.10;99.90;;;23.31;57.30;101798.03;3499641;40;102363;-39
2021/07/09 09:37:19;;;;;;;9.57;6.28;;;24.10;99.90;;;23.25;55.72;101791.63;3500254;40;102092;-39
2021/07/09 09:39:48;;;;;;;9.48;6.00;;;24.10;99.90;;;23.60;55.18;101800.31;3500144;40;102217;-39
2021/07/09 09:42:24;;;;;;;10.93;7.15;;;24.20;99.90;;;23.45;55.78;101801.13;3500069;40;102487;-39
2021/07/09 09:45:02;;;;;;;12.80;7.50;;;24.20;99.90;;;23.12;57.60;101798.53;3500007;40;102390;-39
2021/07/09 09:47:37;;;;;;;12.70;6.15;;;24.00;99.90;;;22.92;58.61;101799.31;3500054;40;102402;-39
2021/07/09 09:50:13;;;;;;;10.13;6.05;;;23.80;99.90;;;22.75;59.71;101793.97;3500346;40;102405;-39
2021/07/09 09:52:52;;;;;;;11.15;5.90;;;23.60;99.90;;;22.62;61.48;101790.53;3500254;40;102165;-40
2021/07/09 09:55:19;;;;;;;10.30;6.38;;;23.50;99.90;;;22.36;59.39;101792.34;3499828;40;102304;-40
2021/07/09 09:58:06;;;;;;;10.15;5.55;;;23.30;99.90;;;22.16;61.26;101796.66;3500283;40;102555;-38
2021/07/09 10:00:34;;;;;;;9.68;6.80;;;23.20;99.90;;;21.97;60.67;101785.16;3500255;40;102298;-39
2021/07/09 10:03:17;;;;;;;11.90;6.57;;;23.00;99.90;;;21.94;63.06;101785.69;3499751;40;102320;-39
2021/07/09 10:05:48;;;;;;;10.23;6.50;;;22.90;99.90;;;21.90;63.94;101782.59;3499676;40;102236;-39
2021/07/09 10:08:19;;;;;;;10.30;6.72;;;22.90;99.90;;;21.91;63.65;101789.00;3500083;40;102431;-38
2021/07/09 10:10:48;;;;;;;12.77;6.72;;;22.80;99.90;;;21.91;63.08;101777.88;3500889;40;102302;-39